Ann Arbor, Michigan
Current Conditions -  °F | °C
As of 7:53 PM on Wednesday 26 Nov 2014 (Local Time) from KARB Reporting Station
Overcast Overcast  
Wind Chill: 24°   Ceiling: 4200
Heat Index: 31°   Visibility: 10mi
Dew Point: 24°   Wind: 7mph
Humidity: 76%   Direction: 350°N
Pressure: 30.07"   Gusts: NA
Location:  42.28°N, 83.75°W
Report Text: KARB 270053Z AUTO 35006KT 10SM OVC042 M01/M04 A3007 RMK AO2 SLP194 T10061044
Loading
Personal Weather Stations






























Interactive Weather Map New forecast layout! Learn more

10-Day Weather Forecast

Advertisements
Track Severe Weather on mobile